Time;durP1;ratioP1;P1;durP2;ratioP2;P2;SDS_P1;SDS_P2;PMS_P1;PMS_P2;Temp;Humidity;BMP_temperature;BMP_pressure;BME280_temperature;BME280_humidity;BME280_pressure;Samples;Min_cycle;Max_cycle;Signal;HPM_P1;HPM_P2
2023/01/03 00:00:34;;;;;;;432.70;409.80;;;7.60;99.90;;;;;;5081008;28;20378;-60
2023/01/03 00:02:59;;;;;;;429.45;407.23;;;7.60;99.90;;;;;;5080223;28;20657;-59
2023/01/03 00:05:25;;;;;;;449.93;426.60;;;7.60;99.90;;;;;;5081613;28;20680;-60
2023/01/03 00:07:50;;;;;;;421.10;399.53;;;7.60;99.90;;;;;;5080241;28;20421;-58
2023/01/03 00:10:16;;;;;;;441.13;417.40;;;7.60;99.90;;;;;;5080710;28;20966;-60
2023/01/03 00:12:41;;;;;;;412.63;391.42;;;7.60;99.90;;;;;;5080281;28;20424;-59
2023/01/03 00:15:08;;;;;;;453.02;429.30;;;7.60;99.90;;;;;;5081407;28;20824;-60
2023/01/03 00:17:33;;;;;;;436.55;413.85;;;7.60;99.90;;;;;;5083627;28;20609;-60
2023/01/03 00:19:59;;;;;;;424.85;403.08;;;7.60;99.90;;;;;;5083771;28;20405;-58
2023/01/03 00:22:24;;;;;;;440.20;417.25;;;7.50;99.90;;;;;;5083049;28;20837;-60
2023/01/03 00:24:51;;;;;;;438.23;415.40;;;7.50;99.90;;;;;;5082054;28;20462;-59
2023/01/03 00:27:17;;;;;;;459.70;435.40;;;7.50;99.90;;;;;;5083365;28;20928;-62
2023/01/03 00:29:43;;;;;;;462.17;437.63;;;7.40;99.90;;;;;;5083681;28;20922;-60
2023/01/03 00:32:09;;;;;;;460.20;435.90;;;7.40;99.90;;;;;;5085207;28;20390;-60
2023/01/03 00:34:35;;;;;;;450.00;426.73;;;7.40;99.90;;;;;;5084814;28;20410;-59
2023/01/03 00:37:01;;;;;;;437.30;415.10;;;7.40;99.90;;;;;;5085621;28;20409;-60
2023/01/03 00:39:27;;;;;;;435.65;412.05;;;7.50;99.90;;;;;;5083873;28;20428;-60
2023/01/03 00:41:52;;;;;;;440.13;417.23;;;7.40;99.90;;;;;;5082583;28;20581;-59
2023/01/03 00:44:18;;;;;;;457.40;433.65;;;7.40;99.90;;;;;;5081397;28;20756;-60
2023/01/03 00:46:44;;;;;;;428.63;406.17;;;7.40;99.90;;;;;;5080282;28;20566;-60
2023/01/03 00:49:10;;;;;;;448.88;425.63;;;7.40;99.90;;;;;;5080466;28;20811;-57
2023/01/03 00:51:38;;;;;;;422.95;401.20;;;7.40;99.90;;;;;;5079073;28;20884;-58
2023/01/03 00:54:05;;;;;;;443.27;420.45;;;7.40;99.90;;;;;;5081007;28;20515;-59
2023/01/03 00:56:33;;;;;;;455.13;431.23;;;7.40;99.90;;;;;;5080567;28;20445;-60
2023/01/03 00:58:59;;;;;;;437.45;414.98;;;7.40;99.90;;;;;;5083102;28;20406;-59
2023/01/03 01:01:31;;;;;;;443.50;420.70;;;7.40;99.90;;;;;;5082812;28;20671;-57
2023/01/03 01:04:18;;;;;;;429.48;407.33;;;7.30;99.90;;;;;;5083402;28;20641;-60
2023/01/03 01:06:52;;;;;;;437.58;414.98;;;7.30;99.90;;;;;;5075904;28;20627;-58
2023/01/03 01:09:20;;;;;;;436.67;414.37;;;7.30;99.90;;;;;;5084907;28;20378;-59
2023/01/03 01:11:46;;;;;;;428.60;405.98;;;7.30;99.90;;;;;;5085274;28;20421;-59
2023/01/03 01:14:19;;;;;;;451.17;427.83;;;7.30;99.90;;;;;;5085410;28;20756;-60
2023/01/03 01:16:53;;;;;;;445.23;422.30;;;7.30;99.90;;;;;;5086565;28;20718;-60
2023/01/03 01:19:30;;;;;;;436.83;414.48;;;7.30;99.90;;;;;;5088062;28;20378;-56
2023/01/03 01:21:57;;;;;;;441.13;418.35;;;7.20;99.90;;;;;;5089441;28;20462;-60
2023/01/03 01:24:23;;;;;;;442.63;419.75;;;7.20;99.90;;;;;;5089820;28;20465;-60
2023/01/03 01:26:50;;;;;;;448.80;425.27;;;7.20;99.90;;;;;;5087323;28;20620;-58
2023/01/03 01:29:16;;;;;;;434.20;411.63;;;7.30;99.90;;;;;;5087363;28;20518;-60
2023/01/03 01:31:43;;;;;;;441.75;418.98;;;7.30;99.90;;;;;;5087557;28;20393;-60
2023/01/03 01:34:09;;;;;;;422.10;400.02;;;7.20;99.90;;;;;;5086453;28;20393;-59
2023/01/03 01:36:36;;;;;;;445.47;422.30;;;7.20;99.90;;;;;;5086635;28;20409;-59
2023/01/03 01:39:22;;;;;;;438.60;416.13;;;7.10;99.90;;;;;;5087650;28;20380;-58
2023/01/03 01:44:54;;;;;;;431.73;409.67;;;7.10;99.90;;;;;;5089299;28;20827;-59
2023/01/03 01:47:29;;;;;;;432.08;409.70;;;7.10;99.90;;;;;;5089394;28;20788;-60
2023/01/03 01:50:00;;;;;;;435.83;413.10;;;7.10;99.90;;;;;;5092682;28;20393;-60
2023/01/03 01:52:28;;;;;;;450.27;426.63;;;7.10;99.90;;;;;;5090090;28;20393;-58
2023/01/03 01:54:55;;;;;;;461.35;436.83;;;7.00;99.90;;;;;;5091272;28;20801;-59
2023/01/03 01:57:23;;;;;;;452.48;428.80;;;7.00;99.90;;;;;;5091526;28;20748;-60
2023/01/03 01:59:48;;;;;;;448.33;424.63;;;7.00;99.90;;;;;;5093929;28;20473;-60
2023/01/03 02:02:19;;;;;;;443.58;420.50;;;7.00;99.90;;;;;;5092103;28;20481;-57
2023/01/03 02:04:48;;;;;;;443.83;420.40;;;7.00;99.90;;;;;;5090714;28;20378;-58
2023/01/03 02:07:14;;;;;;;445.52;422.23;;;7.00;99.90;;;;;;5090793;28;20406;-60
2023/01/03 02:09:40;;;;;;;441.10;418.40;;;7.00;99.90;;;;;;5088565;28;20653;-60
2023/01/03 02:15:47;;;;;;;428.95;406.88;;;7.00;99.90;;;;;;5090144;28;20571;-59
2023/01/03 02:18:39;;;;;;;456.40;432.40;;;7.00;99.90;;;;;;5087704;28;20385;-60
2023/01/03 02:21:37;;;;;;;444.77;421.35;;;6.90;99.90;;;;;;5087336;28;20382;-60
2023/01/03 02:24:29;;;;;;;472.58;447.65;;;6.90;99.90;;;;;;5091821;28;20481;-59
2023/01/03 02:27:28;;;;;;;475.48;450.05;;;6.80;99.90;;;;;;5092773;28;20406;-60
2023/01/03 02:30:10;;;;;;;505.92;478.30;;;6.80;99.90;;;;;;5092640;28;20365;-60
2023/01/03 02:32:43;;;;;;;512.50;484.33;;;6.70;99.90;;;;;;5093475;28;20502;-58
2023/01/03 02:35:20;;;;;;;504.58;476.85;;;6.60;99.90;;;;;;5093397;28;20488;-60
2023/01/03 02:37:52;;;;;;;526.38;497.02;;;6.60;99.90;;;;;;5092643;28;20382;-59
2023/01/03 02:40:50;;;;;;;482.83;456.75;;;6.70;99.90;;;;;;5092008;28;20400;-60
2023/01/03 02:44:09;;;;;;;516.67;488.33;;;6.60;99.90;;;;;;5092863;28;20435;-59
2023/01/03 02:47:05;;;;;;;461.92;437.38;;;6.60;99.90;;;;;;5053390;28;20392;-60
2023/01/03 02:49:52;;;;;;;481.20;455.40;;;6.60;99.90;;;;;;5092345;28;20902;-56
2023/01/03 02:52:22;;;;;;;525.90;497.23;;;6.50;99.90;;;;;;5092884;28;20444;-60
2023/01/03 02:55:04;;;;;;;472.63;447.42;;;6.50;99.90;;;;;;5092976;28;20719;-59
2023/01/03 02:57:46;;;;;;;515.80;487.95;;;6.50;99.90;;;;;;5092854;28;20382;-60
2023/01/03 03:00:14;;;;;;;506.90;479.70;;;6.50;99.90;;;;;;5093956;28;20465;-60
2023/01/03 03:02:45;;;;;;;496.65;470.42;;;6.50;99.90;;;;;;5093529;28;20374;-60
2023/01/03 03:05:17;;;;;;;480.17;455.13;;;6.40;99.90;;;;;;5093639;28;20382;-59
2023/01/03 03:07:43;;;;;;;516.55;488.58;;;6.40;99.90;;;;;;5092381;28;20414;-59
2023/01/03 03:13:15;;;;;;;509.67;482.20;;;6.30;99.90;;;;;;5092617;28;20852;-56
2023/01/03 03:15:57;;;;;;;486.63;460.63;;;6.30;99.90;;;;;;5092271;28;20739;-59
2023/01/03 03:19:02;;;;;;;512.35;484.92;;;6.30;99.90;;;;;;5092529;28;20851;-58
2023/01/03 03:29:59;;;;;;;521.75;493.42;;;6.20;99.90;;;;;;5093106;28;20420;-57
2023/01/03 03:32:28;;;;;;;507.98;480.60;;;6.20;99.90;;;;;;5091506;28;20381;-60
2023/01/03 03:34:58;;;;;;;490.92;464.77;;;6.20;99.90;;;;;;5091903;28;20867;-57
2023/01/03 03:37:26;;;;;;;471.67;446.92;;;6.20;99.90;;;;;;5091829;28;20374;-57
2023/01/03 03:45:39;;;;;;;470.25;445.67;;;6.20;99.90;;;;;;5093269;28;20478;-58
2023/01/03 03:48:07;;;;;;;502.58;475.88;;;6.20;99.90;;;;;;5092295;28;20390;-57
2023/01/03 03:51:00;;;;;;;474.17;449.45;;;6.20;99.90;;;;;;5093032;28;20393;-58
2023/01/03 03:53:31;;;;;;;476.38;451.67;;;6.10;99.90;;;;;;5091717;28;20382;-59
2023/01/03 03:56:01;;;;;;;487.80;462.05;;;6.00;99.90;;;;;;5094409;28;20816;-59
2023/01/03 03:58:44;;;;;;;479.77;455.02;;;6.00;99.90;;;;;;5092393;28;20663;-60
2023/01/03 04:01:15;;;;;;;479.45;454.42;;;5.90;99.90;;;;;;5093580;28;20501;-57
2023/01/03 04:03:43;;;;;;;486.77;461.42;;;6.00;99.90;;;;;;5092525;28;20385;-60
2023/01/03 04:06:18;;;;;;;481.40;456.05;;;5.90;99.90;;;;;;5093417;28;20389;-60
2023/01/03 04:08:44;;;;;;;484.05;459.00;;;5.90;99.90;;;;;;5092860;28;20389;-60
2023/01/03 04:11:10;;;;;;;490.40;465.05;;;5.80;99.90;;;;;;5093430;28;20482;-58
2023/01/03 04:13:37;;;;;;;489.77;463.73;;;5.80;99.90;;;;;;5091867;28;20401;-59
2023/01/03 04:16:11;;;;;;;502.38;476.13;;;5.80;99.90;;;;;;5094749;28;20413;-59
2023/01/03 04:18:37;;;;;;;493.80;468.05;;;5.80;99.90;;;;;;5093098;28;20417;-58
2023/01/03 04:21:03;;;;;;;510.03;483.10;;;5.80;99.90;;;;;;5093236;28;20382;-60
2023/01/03 04:23:28;;;;;;;508.70;481.10;;;5.80;99.90;;;;;;5092817;28;20738;-62
2023/01/03 04:25:54;;;;;;;504.65;477.77;;;5.80;99.90;;;;;;5091619;28;20480;-58
2023/01/03 04:28:19;;;;;;;494.23;468.07;;;5.80;99.90;;;;;;5091556;28;20447;-60
2023/01/03 04:30:45;;;;;;;503.23;476.37;;;5.80;99.90;;;;;;5090417;28;20377;-59
2023/01/03 04:33:11;;;;;;;501.83;475.10;;;5.80;99.90;;;;;;5091874;28;20515;-58
2023/01/03 04:35:37;;;;;;;506.58;479.63;;;5.80;99.90;;;;;;5092244;28;20460;-60
2023/01/03 04:38:04;;;;;;;510.60;483.13;;;5.80;99.90;;;;;;5093971;28;20378;-59
2023/01/03 04:40:29;;;;;;;519.50;491.52;;;5.80;99.90;;;;;;5092272;28;20409;-59
2023/01/03 04:45:39;;;;;;;520.45;492.52;;;5.80;99.90;;;;;;5092417;28;20514;-59
2023/01/03 04:48:05;;;;;;;495.45;469.17;;;5.80;99.90;;;;;;5089921;28;20767;-60
2023/01/03 04:50:31;;;;;;;509.80;482.52;;;5.70;99.90;;;;;;5090175;28;20382;-60
2023/01/03 04:52:57;;;;;;;516.72;488.58;;;5.70;99.90;;;;;;5089209;28;20386;-59
2023/01/03 04:55:22;;;;;;;501.73;474.42;;;5.70;99.90;;;;;;5072873;28;20410;-58
2023/01/03 04:57:48;;;;;;;492.87;467.03;;;5.60;99.90;;;;;;5089739;28;20914;-58
2023/01/03 05:00:14;;;;;;;492.93;466.93;;;5.60;99.90;;;;;;5090518;28;20381;-59
2023/01/03 05:02:39;;;;;;;506.33;479.45;;;5.60;99.90;;;;;;5088972;28;20534;-57
2023/01/03 05:05:06;;;;;;;513.83;486.57;;;5.60;99.90;;;;;;5091446;28;20378;-58
2023/01/03 05:07:31;;;;;;;516.70;488.75;;;5.60;99.90;;;;;;5089697;28;20503;-62
2023/01/03 05:09:57;;;;;;;516.17;488.33;;;5.70;99.90;;;;;;5088780;28;20508;-58
2023/01/03 05:12:22;;;;;;;504.17;477.57;;;5.70;99.90;;;;;;5088200;28;20385;-59
2023/01/03 05:14:48;;;;;;;495.57;469.40;;;5.70;99.90;;;;;;5089123;28;20641;-60
2023/01/03 05:17:13;;;;;;;476.05;451.38;;;5.60;99.90;;;;;;5085928;28;20425;-59
2023/01/03 05:27:56;;;;;;;491.85;465.77;;;5.60;99.90;;;;;;5089180;28;20373;-59
2023/01/03 05:30:21;;;;;;;479.10;453.33;;;5.50;99.90;;;;;;5088534;28;20467;-57
2023/01/03 05:32:47;;;;;;;499.13;472.88;;;5.60;99.90;;;;;;5093014;28;20724;-58
2023/01/03 05:35:12;;;;;;;499.27;472.87;;;5.60;99.90;;;;;;5091796;28;20426;-59
2023/01/03 05:37:38;;;;;;;489.80;463.77;;;5.60;99.90;;;;;;5091970;28;20409;-59
2023/01/03 05:40:04;;;;;;;501.67;474.90;;;5.60;99.90;;;;;;5090399;28;20393;-58
2023/01/03 05:42:29;;;;;;;498.15;472.10;;;5.60;99.90;;;;;;5091417;28;20390;-59
2023/01/03 05:44:55;;;;;;;483.00;457.98;;;5.50;99.90;;;;;;5091658;28;20383;-58
2023/01/03 05:47:20;;;;;;;490.27;464.17;;;5.40;99.90;;;;;;5092019;28;20520;-60
2023/01/03 05:49:46;;;;;;;496.67;470.37;;;5.40;99.90;;;;;;5090890;28;20435;-60
2023/01/03 05:52:11;;;;;;;496.77;470.50;;;5.50;99.90;;;;;;5089610;28;20390;-60
2023/01/03 05:54:37;;;;;;;479.10;453.90;;;5.40;99.90;;;;;;5089668;28;20402;-59
2023/01/03 05:57:02;;;;;;;480.63;455.33;;;5.30;99.90;;;;;;5087247;28;20413;-59
2023/01/03 05:59:28;;;;;;;485.07;459.60;;;5.40;99.90;;;;;;5088790;28;20389;-59
2023/01/03 06:01:54;;;;;;;497.05;470.50;;;5.30;99.90;;;;;;5087196;28;20388;-60
2023/01/03 06:04:19;;;;;;;500.40;474.45;;;5.30;99.90;;;;;;5088718;28;20540;-56
2023/01/03 06:06:45;;;;;;;492.97;466.90;;;5.40;99.90;;;;;;5088439;28;20989;-60
2023/01/03 06:09:10;;;;;;;492.60;466.73;;;5.40;99.90;;;;;;5088192;28;20393;-60
2023/01/03 06:11:36;;;;;;;490.10;464.57;;;5.40;99.90;;;;;;5089212;28;20492;-57
2023/01/03 06:14:01;;;;;;;507.02;480.00;;;5.40;99.90;;;;;;5086799;28;20809;-60
2023/01/03 06:19:11;;;;;;;492.20;466.10;;;5.40;99.90;;;;;;5087418;28;20877;-62
2023/01/03 06:21:37;;;;;;;498.10;471.87;;;5.30;99.90;;;;;;5086162;28;20672;-60
2023/01/03 06:24:03;;;;;;;504.30;477.23;;;5.30;99.90;;;;;;5086453;28;20382;-60
2023/01/03 06:26:29;;;;;;;487.25;461.65;;;5.30;99.90;;;;;;5085580;28;20642;-59
2023/01/03 06:28:54;;;;;;;482.10;457.13;;;5.20;99.90;;;;;;5087333;28;20871;-60
2023/01/03 06:31:20;;;;;;;483.10;457.90;;;5.30;99.90;;;;;;5087589;28;20390;-59
2023/01/03 06:33:46;;;;;;;468.38;443.83;;;5.20;99.90;;;;;;5085099;28;20421;-59
2023/01/03 06:36:14;;;;;;;472.10;447.42;;;5.20;99.90;;;;;;5082568;28;20406;-60
2023/01/03 06:38:40;;;;;;;468.50;444.13;;;5.20;99.90;;;;;;5085134;28;20608;-60
2023/01/03 06:41:06;;;;;;;469.13;444.43;;;5.20;99.90;;;;;;5082157;28;20405;-59
2023/01/03 06:43:32;;;;;;;465.67;441.37;;;5.20;99.90;;;;;;5081530;28;20424;-59
2023/01/03 06:54:20;;;;;;;422.45;401.10;;;5.10;99.90;;;;;;5085005;28;20748;-57
2023/01/03 06:56:45;;;;;;;415.00;393.90;;;5.10;99.90;;;;;;5084986;28;20429;-58
2023/01/03 06:59:11;;;;;;;431.13;408.97;;;5.10;99.90;;;;;;5085325;28;20777;-60
2023/01/03 07:01:37;;;;;;;450.02;426.63;;;5.20;99.90;;;;;;5087185;28;20370;-60
2023/01/03 07:04:03;;;;;;;432.30;410.50;;;5.20;99.90;;;;;;5085729;28;20672;-59
2023/01/03 07:06:28;;;;;;;440.97;418.33;;;5.20;99.90;;;;;;5082679;28;20773;-58
2023/01/03 07:08:54;;;;;;;436.83;414.87;;;5.10;99.90;;;;;;5081533;28;20453;-59
2023/01/03 07:11:24;;;;;;;441.45;418.88;;;5.10;99.90;;;;;;5081467;28;20397;-60
2023/01/03 07:13:59;;;;;;;441.30;418.90;;;5.10;99.90;;;;;;5084136;28;20402;-59
2023/01/03 07:16:45;;;;;;;433.00;411.07;;;5.20;99.90;;;;;;5085725;28;20563;-59
2023/01/03 07:19:16;;;;;;;465.97;441.80;;;5.20;99.90;;;;;;5081441;28;20382;-59
2023/01/03 07:21:42;;;;;;;436.70;414.48;;;5.20;99.90;;;;;;5083719;28;20370;-58
2023/01/03 07:24:12;;;;;;;440.48;418.10;;;5.30;99.90;;;;;;5082591;28;20397;-59
2023/01/03 07:26:37;;;;;;;439.27;416.90;;;5.20;99.90;;;;;;5086388;28;20650;-56
2023/01/03 07:29:05;;;;;;;425.67;403.90;;;5.30;99.90;;;;;;5086131;28;20389;-59
2023/01/03 07:31:31;;;;;;;432.83;410.92;;;5.20;99.90;;;;;;5084536;28;20389;-59
2023/01/03 07:33:57;;;;;;;438.80;416.08;;;5.20;99.90;;;;;;5082480;28;20414;-56
2023/01/03 07:36:23;;;;;;;414.10;392.73;;;5.20;99.90;;;;;;5080417;28;20402;-56
2023/01/03 07:38:49;;;;;;;402.50;381.77;;;5.10;99.90;;;;;;5080671;28;20761;-59
2023/01/03 07:41:15;;;;;;;422.47;400.67;;;5.10;99.90;;;;;;5076892;28;20573;-59
2023/01/03 07:43:43;;;;;;;406.80;386.03;;;5.10;99.90;;;;;;5074344;28;20408;-58
2023/01/03 07:46:21;;;;;;;413.30;392.02;;;5.10;99.90;;;;;;5074647;28;20474;-59
2023/01/03 07:48:48;;;;;;;435.27;413.10;;;5.10;99.90;;;;;;5077013;28;20554;-59
2023/01/03 07:51:16;;;;;;;407.10;386.40;;;5.10;99.90;;;;;;5078776;28;20386;-58
2023/01/03 07:53:43;;;;;;;405.37;384.43;;;5.10;99.90;;;;;;5077314;28;20374;-58
2023/01/03 07:56:10;;;;;;;409.60;388.90;;;5.10;99.90;;;;;;5077723;28;20461;-60
2023/01/03 07:58:35;;;;;;;417.90;396.55;;;5.10;99.90;;;;;;5078609;28;20658;-59
2023/01/03 08:01:13;;;;;;;403.55;383.20;;;5.10;99.90;;;;;;5072775;28;20462;-60
2023/01/03 08:03:39;;;;;;;407.30;386.33;;;5.10;99.90;;;;;;5076381;28;20385;-59
2023/01/03 08:06:11;;;;;;;421.25;399.83;;;5.20;99.90;;;;;;5077068;28;20408;-60
2023/01/03 08:08:37;;;;;;;402.13;381.60;;;5.10;99.90;;;;;;5076021;28;20459;-60
2023/01/03 08:13:48;;;;;;;439.73;417.10;;;5.30;99.90;;;;;;5077175;28;20385;-58
2023/01/03 08:16:16;;;;;;;438.67;416.27;;;5.30;99.90;;;;;;5076713;28;20398;-59
2023/01/03 08:18:42;;;;;;;451.48;428.50;;;5.20;99.90;;;;;;5076666;28;20374;-61
2023/01/03 08:21:12;;;;;;;445.50;422.52;;;5.30;99.90;;;;;;5076756;28;20673;-60
2023/01/03 08:23:38;;;;;;;428.70;406.90;;;5.20;99.90;;;;;;5074773;28;20374;-60
2023/01/03 08:26:07;;;;;;;439.13;417.03;;;5.30;99.90;;;;;;5070376;28;20559;-59
2023/01/03 08:28:33;;;;;;;421.87;400.33;;;5.30;99.90;;;;;;5069362;28;20545;-59
2023/01/03 08:31:02;;;;;;;420.35;399.15;;;5.20;99.90;;;;;;5070754;28;20793;-58
2023/01/03 08:33:32;;;;;;;415.50;394.58;;;5.20;99.90;;;;;;5069417;28;21031;-61
2023/01/03 08:36:04;;;;;;;406.07;385.30;;;5.10;99.90;;;;;;5069826;28;20439;-60
2023/01/03 08:38:36;;;;;;;417.33;396.38;;;5.10;99.90;;;;;;5069203;28;20446;-60
2023/01/03 08:41:04;;;;;;;434.83;412.90;;;5.20;99.90;;;;;;5070189;28;20636;-61
2023/01/03 08:43:34;;;;;;;441.42;418.67;;;5.20;99.90;;;;;;5070025;28;20466;-61
2023/01/03 08:46:02;;;;;;;474.83;450.15;;;5.30;99.90;;;;;;5068033;28;20568;-59
2023/01/03 08:48:28;;;;;;;458.08;434.55;;;5.40;99.90;;;;;;5065560;28;20489;-60
2023/01/03 08:50:53;;;;;;;414.30;393.30;;;5.30;99.90;;;;;;5067450;28;20712;-60
2023/01/03 08:53:21;;;;;;;422.90;401.10;;;5.20;99.90;;;;;;5069722;28;20416;-60
2023/01/03 08:55:47;;;;;;;418.23;396.92;;;5.20;99.90;;;;;;5070011;28;20424;-59
2023/01/03 08:58:12;;;;;;;447.90;425.00;;;5.30;99.90;;;;;;5068917;28;20378;-60
2023/01/03 09:00:38;;;;;;;410.25;389.48;;;5.20;99.90;;;;;;5068893;28;20512;-60
2023/01/03 09:03:04;;;;;;;383.67;364.13;;;5.20;99.90;;;;;;5071545;28;20462;-59
2023/01/03 09:05:29;;;;;;;402.05;381.75;;;5.20;99.90;;;;;;5072900;28;20397;-58
2023/01/03 09:07:56;;;;;;;425.40;403.70;;;5.20;99.90;;;;;;5072237;28;20432;-59
2023/01/03 09:10:22;;;;;;;438.10;415.63;;;5.30;99.90;;;;;;5069389;28;20398;-58
2023/01/03 09:12:47;;;;;;;439.00;416.38;;;5.40;99.90;;;;;;5071983;28;20458;-60
2023/01/03 09:15:13;;;;;;;448.07;424.60;;;5.40;99.90;;;;;;5078244;28;20415;-60
2023/01/03 09:17:43;;;;;;;461.03;437.33;;;5.50;99.90;;;;;;5080140;28;20390;-60
2023/01/03 09:20:11;;;;;;;480.63;455.42;;;5.80;99.90;;;;;;5079325;28;20753;-60
2023/01/03 09:22:37;;;;;;;490.40;464.55;;;6.10;99.90;;;;;;5079728;28;20382;-60
2023/01/03 09:25:04;;;;;;;565.03;533.05;;;6.50;99.90;;;;;;5079974;28;20398;-60
2023/01/03 09:27:29;;;;;;;517.35;488.88;;;7.00;99.90;;;;;;5078270;28;20444;-59
2023/01/03 09:29:55;;;;;;;411.00;390.08;;;7.50;99.90;;;;;;5078609;28;20406;-60
2023/01/03 09:32:21;;;;;;;428.87;407.17;;;7.90;99.90;;;;;;5077666;28;20387;-60
2023/01/03 09:34:46;;;;;;;460.33;436.60;;;7.80;99.90;;;;;;5080593;28;20386;-60
2023/01/03 09:37:12;;;;;;;476.05;451.25;;;7.60;99.90;;;;;;5081842;28;20442;-61
2023/01/03 09:39:39;;;;;;;489.02;463.13;;;7.40;99.90;;;;;;5082350;28;20393;-60
2023/01/03 09:44:52;;;;;;;499.30;473.13;;;7.10;99.90;;;;;;5085074;28;20435;-61
2023/01/03 09:47:24;;;;;;;477.77;452.60;;;7.10;99.90;;;;;;5083711;28;20373;-60
2023/01/03 09:49:52;;;;;;;480.17;455.38;;;7.00;99.90;;;;;;5082594;28;20382;-61
2023/01/03 10:04:08;;;;;;;514.83;487.38;;;6.50;99.90;;;;;;5082703;28;20373;-59
2023/01/03 10:06:56;;;;;;;527.40;499.30;;;6.50;99.90;;;;;;5079841;28;20386;-60
2023/01/03 10:09:44;;;;;;;533.95;505.67;;;6.40;99.90;;;;;;5078267;28;20378;-60
2023/01/03 10:12:45;;;;;;;522.45;494.63;;;6.40;99.90;;;;;;5082887;28;20382;-58
2023/01/03 10:15:41;;;;;;;535.05;506.45;;;6.40;99.90;;;;;;5082334;28;20388;-58
2023/01/03 10:18:37;;;;;;;537.55;508.80;;;6.30;99.90;;;;;;5084184;28;20429;-60
2023/01/03 10:21:18;;;;;;;513.53;486.27;;;6.30;99.90;;;;;;5083231;28;20413;-61
2023/01/03 10:23:47;;;;;;;540.42;511.17;;;6.30;99.90;;;;;;5085597;28;20420;-60
2023/01/03 10:26:12;;;;;;;552.85;522.65;;;6.20;99.90;;;;;;5083927;28;20398;-60
2023/01/03 10:28:42;;;;;;;534.17;505.70;;;6.20;99.90;;;;;;5086031;28;20404;-58
2023/01/03 10:32:01;;;;;;;541.87;512.33;;;6.20;99.90;;;;;;5085940;28;20640;-61
2023/01/03 10:34:27;;;;;;;540.65;511.00;;;6.20;99.90;;;;;;5065748;28;20428;-60
2023/01/03 10:36:53;;;;;;;549.83;519.77;;;6.30;99.90;;;;;;5083070;28;20481;-62
2023/01/03 10:39:30;;;;;;;546.38;516.80;;;6.40;99.90;;;;;;5081961;28;20420;-58
2023/01/03 10:41:58;;;;;;;549.30;519.58;;;6.40;99.90;;;;;;5081035;28;20378;-60
2023/01/03 10:44:29;;;;;;;525.00;496.88;;;6.50;99.90;;;;;;5081819;28;20369;-60
2023/01/03 10:46:58;;;;;;;518.65;491.27;;;6.60;99.90;;;;;;5083655;28;20871;-60
2023/01/03 10:49:28;;;;;;;509.50;482.50;;;6.70;99.90;;;;;;5082271;28;20385;-59
2023/01/03 10:51:56;;;;;;;513.40;486.38;;;6.70;99.90;;;;;;5084250;28;20378;-60
2023/01/03 10:54:42;;;;;;;529.13;501.15;;;6.60;99.90;;;;;;5082014;28;20421;-60
2023/01/03 10:57:47;;;;;;;517.47;490.25;;;6.70;99.90;;;;;;5083179;28;20499;-58
2023/01/03 11:00:32;;;;;;;520.70;493.02;;;6.70;99.90;;;;;;5083336;28;20378;-59
2023/01/03 11:03:19;;;;;;;520.05;492.35;;;6.80;99.90;;;;;;5082756;28;21059;-60
2023/01/03 11:05:48;;;;;;;519.88;492.33;;;6.90;99.90;;;;;;5075155;28;20428;-60
2023/01/03 11:08:18;;;;;;;481.48;456.02;;;7.00;99.90;;;;;;5069575;28;20443;-61
2023/01/03 11:10:55;;;;;;;451.45;428.02;;;7.10;99.90;;;;;;5082973;28;20405;-60
2023/01/03 11:13:26;;;;;;;467.42;443.25;;;7.00;99.90;;;;;;5079660;28;20662;-61
2023/01/03 11:15:55;;;;;;;477.73;452.75;;;7.00;99.90;;;;;;5079299;28;20425;-60
2023/01/03 11:18:22;;;;;;;489.40;463.80;;;7.00;99.90;;;;;;5086815;28;20374;-61
2023/01/03 11:20:58;;;;;;;480.77;455.42;;;7.10;99.90;;;;;;5085663;28;20458;-61
2023/01/03 11:23:32;;;;;;;450.95;427.67;;;7.20;99.90;;;;;;5087198;28;20424;-61
2023/01/03 11:26:12;;;;;;;397.65;377.83;;;7.30;99.90;;;;;;5088333;28;20491;-61
2023/01/03 11:29:07;;;;;;;397.60;377.33;;;7.40;99.90;;;;;;5087857;28;20753;-61
2023/01/03 11:31:59;;;;;;;408.73;388.57;;;7.40;99.90;;;;;;5088278;28;20390;-52
2023/01/03 11:35:03;;;;;;;425.50;403.98;;;7.50;99.90;;;;;;5085446;28;20414;-53
2023/01/03 11:38:05;;;;;;;380.38;361.73;;;7.60;99.90;;;;;;5087780;28;20389;-59
2023/01/03 11:41:02;;;;;;;394.83;375.33;;;7.60;99.90;;;;;;5085207;28;20449;-61
2023/01/03 11:44:05;;;;;;;433.30;411.77;;;7.70;99.90;;;;;;5083301;28;20661;-63
2023/01/03 11:47:00;;;;;;;455.95;431.02;;;7.90;99.90;;;;;;5082974;28;20393;-61
2023/01/03 11:49:55;;;;;;;359.77;342.50;;;8.10;99.90;;;;;;5082355;28;20381;-61
2023/01/03 11:52:29;;;;;;;438.88;416.88;;;8.20;99.90;;;;;;5077943;28;20373;-61
2023/01/03 11:55:33;;;;;;;505.30;478.35;;;8.40;99.90;;;;;;5076832;28;20393;-60
2023/01/03 11:58:26;;;;;;;536.92;508.02;;;8.60;99.90;;;;;;5080417;28;20381;-61
2023/01/03 12:01:09;;;;;;;521.13;492.77;;;8.20;99.90;;;;;;5078175;28;20382;-61
2023/01/03 12:04:08;;;;;;;549.70;519.88;;;8.40;99.90;;;;;;5077285;28;20489;-60
2023/01/03 12:06:43;;;;;;;512.90;484.30;;;8.60;99.90;;;;;;5079086;28;20477;-61
2023/01/03 12:09:29;;;;;;;563.00;531.38;;;8.70;99.90;;;;;;5081673;28;20378;-62
2023/01/03 12:12:22;;;;;;;541.80;511.15;;;8.70;99.90;;;;;;5081092;28;20436;-61
2023/01/03 12:15:25;;;;;;;533.17;504.00;;;8.90;99.90;;;;;;5081897;28;20378;-61
2023/01/03 12:18:02;;;;;;;509.30;482.17;;;8.80;99.90;;;;;;5079690;28;20432;-61
2023/01/03 12:20:39;;;;;;;513.90;485.80;;;9.00;99.90;;;;;;5080870;28;20366;-61
2023/01/03 12:23:15;;;;;;;532.35;503.13;;;9.10;99.90;;;;;;5082638;28;20463;-60
2023/01/03 12:25:53;;;;;;;549.25;518.08;;;9.00;99.90;;;;;;5082969;28;20439;-61
2023/01/03 12:28:36;;;;;;;585.30;552.07;;;9.20;99.90;;;;;;5078494;28;20382;-61
2023/01/03 12:31:18;;;;;;;572.60;540.33;;;9.40;99.90;;;;;;5081742;28;20374;-61
2023/01/03 12:34:16;;;;;;;575.47;542.28;;;9.50;99.90;;;;;;5081826;28;20449;-61
2023/01/03 12:37:10;;;;;;;541.22;510.52;;;9.50;99.90;;;;;;5081775;28;20394;-61
2023/01/03 12:39:55;;;;;;;515.55;486.35;;;9.50;99.90;;;;;;5078011;28;20432;-61
2023/01/03 12:42:36;;;;;;;501.88;474.88;;;9.70;99.90;;;;;;5080329;28;20397;-61
2023/01/03 12:45:35;;;;;;;416.27;395.17;;;9.60;99.90;;;;;;5082640;28;20413;-59
2023/01/03 12:48:18;;;;;;;451.42;428.15;;;9.40;99.90;;;;;;5080662;28;20396;-61
2023/01/03 12:50:51;;;;;;;454.15;430.48;;;9.30;99.90;;;;;;5078736;28;20382;-62
2023/01/03 12:53:30;;;;;;;452.87;429.43;;;9.40;99.90;;;;;;5077129;28;20390;-63
2023/01/03 12:56:14;;;;;;;445.42;422.48;;;9.40;99.90;;;;;;5078455;28;20394;-61
2023/01/03 12:58:58;;;;;;;455.05;431.73;;;9.50;99.90;;;;;;5078674;28;20406;-61
2023/01/03 13:01:27;;;;;;;450.40;427.33;;;9.40;99.90;;;;;;5080306;28;20432;-60
2023/01/03 13:03:59;;;;;;;472.38;447.70;;;9.50;99.90;;;;;;5079079;28;20381;-61
2023/01/03 13:06:30;;;;;;;470.05;445.70;;;9.60;99.90;;;;;;5079943;28;20447;-61
2023/01/03 13:09:22;;;;;;;445.00;422.15;;;9.60;99.90;;;;;;5081337;28;20441;-60
2023/01/03 13:11:54;;;;;;;404.77;384.35;;;9.80;99.90;;;;;;5081984;28;20443;-61
2023/01/03 13:14:24;;;;;;;356.08;338.33;;;10.10;99.90;;;;;;5080985;28;21075;-60
2023/01/03 13:16:55;;;;;;;342.13;325.30;;;10.20;99.90;;;;;;5082108;28;20406;-61
2023/01/03 13:19:21;;;;;;;364.60;346.75;;;9.70;99.90;;;;;;5082475;28;20378;-61
2023/01/03 13:21:52;;;;;;;366.17;348.70;;;9.50;99.90;;;;;;5081397;28;20473;-60
2023/01/03 13:24:43;;;;;;;373.50;355.23;;;9.50;99.90;;;;;;5080619;28;20390;-60
2023/01/03 13:27:23;;;;;;;382.77;364.00;;;9.60;99.90;;;;;;5081322;28;20374;-60
2023/01/03 13:29:49;;;;;;;387.38;368.40;;;9.70;99.90;;;;;;5080809;28;20768;-61
2023/01/03 13:32:20;;;;;;;370.30;352.25;;;9.90;99.90;;;;;;5075290;28;20816;-60
2023/01/03 13:34:55;;;;;;;371.40;352.90;;;10.00;99.90;;;;;;5073580;28;20474;-60
2023/01/03 13:37:46;;;;;;;367.83;349.33;;;10.00;99.90;;;;;;5069786;28;20497;-60
2023/01/03 13:40:23;;;;;;;366.13;348.40;;;9.90;99.90;;;;;;5068064;28;20750;-59
2023/01/03 13:43:17;;;;;;;372.70;354.42;;;9.90;99.90;;;;;;5073900;28;20377;-61
2023/01/03 13:45:42;;;;;;;372.83;354.08;;;10.20;99.90;;;;;;5070629;28;20398;-61
2023/01/03 13:48:09;;;;;;;370.90;352.50;;;10.50;99.90;;;;;;5072943;28;20394;-60